Terminal Aerodrome Forecast
Issued by NWS Charleston, WV

Current Version | Previous Version | Text Only | Print | Product List | Glossary Off
Versions: 1 2 3 4 5 6 7 8 9 10 11 12 13 14 15 16 17 18 19 20 21

666
FTUS41 KRLX 060538
TAFPKB
TAF
KPKB 060538Z 0606/0706 16004KT P6SM FEW150
     FM061000 19004KT P6SM BKN050
     FM061700 23005KT P6SM BKN200
     FM062300 22004KT P6SM BKN060=

USA.gov is the U.S. government's official web portal to all federal, state and local government web resources and services.